sensor_id;sensor_type;location;lat;lon;timestamp;pressure;altitude;pressure_sealevel;temperature;humidity
39363;BME280;25088;43.238;23.110;2023-11-21T00:00:14;96237.94;;;8.48;66.44
39363;BME280;25088;43.238;23.110;2023-11-21T00:02:40;96238.63;;;8.38;67.09
39363;BME280;25088;43.238;23.110;2023-11-21T00:05:08;96241.06;;;8.40;67.09
39363;BME280;25088;43.238;23.110;2023-11-21T00:07:35;96232.09;;;8.39;67.49
39363;BME280;25088;43.238;23.110;2023-11-21T00:10:00;96226.66;;;8.39;66.90
39363;BME280;25088;43.238;23.110;2023-11-21T00:12:26;96235.63;;;8.40;67.61
39363;BME280;25088;43.238;23.110;2023-11-21T00:14:52;96233.72;;;8.40;66.99
39363;BME280;25088;43.238;23.110;2023-11-21T00:17:18;96237.31;;;8.41;66.91
39363;BME280;25088;43.238;23.110;2023-11-21T00:19:44;96232.84;;;8.51;66.03
39363;BME280;25088;43.238;23.110;2023-11-21T00:22:09;96236.53;;;8.62;65.66
39363;BME280;25088;43.238;23.110;2023-11-21T00:24:35;96227.88;;;8.65;65.68
39363;BME280;25088;43.238;23.110;2023-11-21T00:27:00;96233.06;;;8.50;66.74
39363;BME280;25088;43.238;23.110;2023-11-21T00:29:25;96228.63;;;8.44;66.83
39363;BME280;25088;43.238;23.110;2023-11-21T00:31:51;96234.41;;;8.47;67.13
39363;BME280;25088;43.238;23.110;2023-11-21T00:34:17;96248.25;;;8.46;67.08
39363;BME280;25088;43.238;23.110;2023-11-21T00:36:42;96238.75;;;8.48;66.88
39363;BME280;25088;43.238;23.110;2023-11-21T00:39:08;96231.94;;;8.46;66.40
39363;BME280;25088;43.238;23.110;2023-11-21T00:41:33;96227.28;;;8.29;67.16
39363;BME280;25088;43.238;23.110;2023-11-21T00:44:00;96218.75;;;8.38;67.88
39363;BME280;25088;43.238;23.110;2023-11-21T00:46:26;96196.81;;;8.27;67.19
39363;BME280;25088;43.238;23.110;2023-11-21T00:48:54;96216.66;;;8.62;66.20
39363;BME280;25088;43.238;23.110;2023-11-21T00:51:20;96219.25;;;8.73;65.07
39363;BME280;25088;43.238;23.110;2023-11-21T00:53:45;96219.44;;;8.89;64.82
39363;BME280;25088;43.238;23.110;2023-11-21T00:56:11;96208.75;;;9.04;64.40
39363;BME280;25088;43.238;23.110;2023-11-21T00:58:37;96208.81;;;9.09;64.37
39363;BME280;25088;43.238;23.110;2023-11-21T01:01:02;96201.47;;;8.88;65.37
39363;BME280;25088;43.238;23.110;2023-11-21T01:03:28;96188.56;;;8.78;65.51
39363;BME280;25088;43.238;23.110;2023-11-21T01:05:54;96207.06;;;8.76;66.08
39363;BME280;25088;43.238;23.110;2023-11-21T01:08:19;96214.13;;;8.77;66.52
39363;BME280;25088;43.238;23.110;2023-11-21T01:10:45;96209.72;;;8.93;65.00
39363;BME280;25088;43.238;23.110;2023-11-21T01:13:10;96215.53;;;9.23;63.94
39363;BME280;25088;43.238;23.110;2023-11-21T01:15:36;96215.19;;;9.20;65.22
39363;BME280;25088;43.238;23.110;2023-11-21T01:18:01;96213.69;;;9.07;66.14
39363;BME280;25088;43.238;23.110;2023-11-21T01:20:28;96214.28;;;8.87;66.80
39363;BME280;25088;43.238;23.110;2023-11-21T01:22:54;96211.97;;;8.79;67.36
39363;BME280;25088;43.238;23.110;2023-11-21T01:25:20;96209.13;;;8.69;67.69
39363;BME280;25088;43.238;23.110;2023-11-21T01:27:46;96211.84;;;8.69;67.66
39363;BME280;25088;43.238;23.110;2023-11-21T01:30:12;96209.09;;;8.86;67.55
39363;BME280;25088;43.238;23.110;2023-11-21T01:32:38;96202.88;;;8.90;67.94
39363;BME280;25088;43.238;23.110;2023-11-21T01:35:05;96209.25;;;8.79;67.13
39363;BME280;25088;43.238;23.110;2023-11-21T01:37:32;96194.81;;;8.78;67.44
39363;BME280;25088;43.238;23.110;2023-11-21T01:39:58;96203.66;;;8.86;67.48
39363;BME280;25088;43.238;23.110;2023-11-21T01:42:24;96199.66;;;8.71;68.13
39363;BME280;25088;43.238;23.110;2023-11-21T01:44:49;96195.47;;;8.86;67.85
39363;BME280;25088;43.238;23.110;2023-11-21T01:47:16;96192.44;;;8.82;67.59
39363;BME280;25088;43.238;23.110;2023-11-21T01:49:44;96198.56;;;8.94;67.46
39363;BME280;25088;43.238;23.110;2023-11-21T01:52:10;96196.59;;;8.90;67.06
39363;BME280;25088;43.238;23.110;2023-11-21T01:54:37;96192.41;;;9.04;67.37
39363;BME280;25088;43.238;23.110;2023-11-21T01:57:03;96196.72;;;9.00;67.76
39363;BME280;25088;43.238;23.110;2023-11-21T01:59:35;96174.25;;;8.88;67.10
39363;BME280;25088;43.238;23.110;2023-11-21T02:02:05;96184.13;;;9.16;66.13
39363;BME280;25088;43.238;23.110;2023-11-21T02:04:35;96186.19;;;9.30;65.04
39363;BME280;25088;43.238;23.110;2023-11-21T02:07:02;96161.00;;;9.18;65.33
39363;BME280;25088;43.238;23.110;2023-11-21T02:09:30;96186.44;;;9.29;65.63
39363;BME280;25088;43.238;23.110;2023-11-21T02:11:56;96186.81;;;9.38;64.79
39363;BME280;25088;43.238;23.110;2023-11-21T02:14:27;96156.31;;;9.14;65.02
39363;BME280;25088;43.238;23.110;2023-11-21T02:16:53;96183.75;;;9.34;64.38
39363;BME280;25088;43.238;23.110;2023-11-21T02:19:20;96176.88;;;9.26;64.77
39363;BME280;25088;43.238;23.110;2023-11-21T02:21:49;96193.50;;;9.25;66.07
39363;BME280;25088;43.238;23.110;2023-11-21T02:24:17;96183.69;;;9.02;66.42
39363;BME280;25088;43.238;23.110;2023-11-21T02:26:43;96196.34;;;9.13;65.93
39363;BME280;25088;43.238;23.110;2023-11-21T02:29:08;96191.47;;;9.15;65.29
39363;BME280;25088;43.238;23.110;2023-11-21T02:31:37;96206.53;;;9.23;66.37
39363;BME280;25088;43.238;23.110;2023-11-21T02:34:11;96200.41;;;9.11;66.79
39363;BME280;25088;43.238;23.110;2023-11-21T02:36:38;96189.75;;;9.09;66.82
39363;BME280;25088;43.238;23.110;2023-11-21T02:39:04;96185.38;;;9.08;66.04
39363;BME280;25088;43.238;23.110;2023-11-21T02:41:29;96198.34;;;9.23;65.30
39363;BME280;25088;43.238;23.110;2023-11-21T02:43:55;96187.66;;;9.16;65.55
39363;BME280;25088;43.238;23.110;2023-11-21T02:46:20;96196.44;;;9.23;65.42
39363;BME280;25088;43.238;23.110;2023-11-21T02:48:47;96179.44;;;9.11;66.06
39363;BME280;25088;43.238;23.110;2023-11-21T02:51:12;96183.69;;;9.02;66.98
39363;BME280;25088;43.238;23.110;2023-11-21T02:53:38;96184.47;;;9.24;66.70
39363;BME280;25088;43.238;23.110;2023-11-21T02:56:04;96182.50;;;9.20;65.80
39363;BME280;25088;43.238;23.110;2023-11-21T02:58:30;96181.09;;;9.12;66.32
39363;BME280;25088;43.238;23.110;2023-11-21T03:00:55;96191.47;;;9.15;66.21
39363;BME280;25088;43.238;23.110;2023-11-21T03:03:21;96189.00;;;9.14;66.20
39363;BME280;25088;43.238;23.110;2023-11-21T03:05:49;96187.16;;;9.19;66.45
39363;BME280;25088;43.238;23.110;2023-11-21T03:08:14;96185.88;;;9.27;65.78
39363;BME280;25088;43.238;23.110;2023-11-21T03:10:40;96186.44;;;9.29;65.48
39363;BME280;25088;43.238;23.110;2023-11-21T03:13:05;96178.63;;;9.38;64.87
39363;BME280;25088;43.238;23.110;2023-11-21T03:15:30;96162.25;;;9.32;65.43
39363;BME280;25088;43.238;23.110;2023-11-21T03:17:58;96162.34;;;9.43;65.10
39363;BME280;25088;43.238;23.110;2023-11-21T03:20:23;96145.94;;;9.38;65.53
39363;BME280;25088;43.238;23.110;2023-11-21T03:22:49;96132.22;;;9.27;64.97
39363;BME280;25088;43.238;23.110;2023-11-21T03:25:15;96150.13;;;9.45;64.79
39363;BME280;25088;43.238;23.110;2023-11-21T03:27:42;96155.03;;;9.48;65.95
39363;BME280;25088;43.238;23.110;2023-11-21T03:30:10;96119.31;;;9.18;66.43
39363;BME280;25088;43.238;23.110;2023-11-21T03:32:36;96149.22;;;9.13;67.31
39363;BME280;25088;43.238;23.110;2023-11-21T03:35:02;96161.97;;;9.07;68.24
39363;BME280;25088;43.238;23.110;2023-11-21T03:37:27;96167.13;;;8.82;70.16
39363;BME280;25088;43.238;23.110;2023-11-21T03:39:54;96182.09;;;8.84;69.29
39363;BME280;25088;43.238;23.110;2023-11-21T03:42:20;96173.63;;;8.80;69.39
39363;BME280;25088;43.238;23.110;2023-11-21T03:44:45;96180.91;;;8.97;68.36
39363;BME280;25088;43.238;23.110;2023-11-21T03:47:11;96177.53;;;9.12;67.50
39363;BME280;25088;43.238;23.110;2023-11-21T03:49:37;96172.97;;;9.17;66.87
39363;BME280;25088;43.238;23.110;2023-11-21T03:52:03;96171.72;;;9.25;66.13
39363;BME280;25088;43.238;23.110;2023-11-21T03:54:28;96147.09;;;9.20;65.68
39363;BME280;25088;43.238;23.110;2023-11-21T03:56:53;96175.59;;;9.34;66.00
39363;BME280;25088;43.238;23.110;2023-11-21T03:59:19;96153.19;;;9.27;65.87
39363;BME280;25088;43.238;23.110;2023-11-21T04:01:44;96163.97;;;9.44;65.53
39363;BME280;25088;43.238;23.110;2023-11-21T04:04:10;96165.13;;;9.48;65.05
39363;BME280;25088;43.238;23.110;2023-11-21T04:06:35;96144.84;;;9.39;64.54
39363;BME280;25088;43.238;23.110;2023-11-21T04:09:02;96172.41;;;9.42;65.43
39363;BME280;25088;43.238;23.110;2023-11-21T04:11:29;96151.72;;;9.41;64.70
39363;BME280;25088;43.238;23.110;2023-11-21T04:13:55;96167.88;;;9.53;64.58
39363;BME280;25088;43.238;23.110;2023-11-21T04:16:20;96162.81;;;9.62;64.37
39363;BME280;25088;43.238;23.110;2023-11-21T04:18:46;96156.94;;;9.75;63.67
39363;BME280;25088;43.238;23.110;2023-11-21T04:21:11;96156.97;;;9.80;63.69
39363;BME280;25088;43.238;23.110;2023-11-21T04:23:37;96143.59;;;9.46;63.97
39363;BME280;25088;43.238;23.110;2023-11-21T04:26:02;96162.44;;;9.80;62.50
39363;BME280;25088;43.238;23.110;2023-11-21T04:28:28;96174.47;;;9.89;63.00
39363;BME280;25088;43.238;23.110;2023-11-21T04:30:53;96154.22;;;9.75;62.73
39363;BME280;25088;43.238;23.110;2023-11-21T04:33:19;96155.56;;;9.77;63.77
39363;BME280;25088;43.238;23.110;2023-11-21T04:35:44;96149.06;;;9.83;63.67
39363;BME280;25088;43.238;23.110;2023-11-21T04:38:10;96157.31;;;9.56;64.79
39363;BME280;25088;43.238;23.110;2023-11-21T04:40:35;96156.56;;;9.66;64.23
39363;BME280;25088;43.238;23.110;2023-11-21T04:43:01;96141.94;;;9.77;62.95
39363;BME280;25088;43.238;23.110;2023-11-21T04:45:27;96142.50;;;9.79;63.68
39363;BME280;25088;43.238;23.110;2023-11-21T04:47:52;96109.53;;;9.49;63.93
39363;BME280;25088;43.238;23.110;2023-11-21T04:50:18;96147.44;;;9.82;63.35
39363;BME280;25088;43.238;23.110;2023-11-21T04:52:44;96142.03;;;9.88;63.60
39363;BME280;25088;43.238;23.110;2023-11-21T04:55:09;96140.34;;;9.81;63.20
39363;BME280;25088;43.238;23.110;2023-11-21T04:57:36;96133.88;;;9.93;63.50
39363;BME280;25088;43.238;23.110;2023-11-21T05:00:02;96128.66;;;9.86;62.96
39363;BME280;25088;43.238;23.110;2023-11-21T05:02:31;96130.22;;;9.77;63.22
39363;BME280;25088;43.238;23.110;2023-11-21T05:04:59;96122.31;;;9.75;63.66
39363;BME280;25088;43.238;23.110;2023-11-21T05:07:25;96118.34;;;9.93;63.39
39363;BME280;25088;43.238;23.110;2023-11-21T05:09:54;96124.34;;;9.90;63.74
39363;BME280;25088;43.238;23.110;2023-11-21T05:12:21;96131.13;;;9.88;63.79
39363;BME280;25088;43.238;23.110;2023-11-21T05:14:48;96135.84;;;9.65;65.02
39363;BME280;25088;43.238;23.110;2023-11-21T05:17:14;96138.81;;;9.64;65.20
39363;BME280;25088;43.238;23.110;2023-11-21T05:19:39;96141.25;;;9.60;65.48
39363;BME280;25088;43.238;23.110;2023-11-21T05:22:05;96128.66;;;9.54;65.86
39363;BME280;25088;43.238;23.110;2023-11-21T05:24:31;96143.38;;;9.53;65.54
39363;BME280;25088;43.238;23.110;2023-11-21T05:26:57;96155.44;;;9.62;65.57
39363;BME280;25088;43.238;23.110;2023-11-21T05:29:23;96129.75;;;9.53;64.83
39363;BME280;25088;43.238;23.110;2023-11-21T05:31:48;96136.81;;;9.54;65.07
39363;BME280;25088;43.238;23.110;2023-11-21T05:34:14;96155.84;;;9.76;64.48
39363;BME280;25088;43.238;23.110;2023-11-21T05:36:42;96142.72;;;9.73;64.68
39363;BME280;25088;43.238;23.110;2023-11-21T05:39:07;96107.97;;;9.58;64.45
39363;BME280;25088;43.238;23.110;2023-11-21T05:41:33;96139.53;;;9.81;64.58
39363;BME280;25088;43.238;23.110;2023-11-21T05:43:59;96131.94;;;9.88;63.57
39363;BME280;25088;43.238;23.110;2023-11-21T05:46:24;96135.31;;;10.00;63.42
39363;BME280;25088;43.238;23.110;2023-11-21T05:48:50;96132.91;;;10.09;62.65
39363;BME280;25088;43.238;23.110;2023-11-21T05:51:15;96124.72;;;10.09;63.28
39363;BME280;25088;43.238;23.110;2023-11-21T05:53:41;96134.56;;;10.10;63.39
39363;BME280;25088;43.238;23.110;2023-11-21T05:56:07;96115.66;;;9.98;63.65
39363;BME280;25088;43.238;23.110;2023-11-21T05:58:32;96146.88;;;10.18;63.08
39363;BME280;25088;43.238;23.110;2023-11-21T06:00:58;96155.88;;;10.18;62.85
39363;BME280;25088;43.238;23.110;2023-11-21T06:03:23;96149.63;;;10.23;63.03
39363;BME280;25088;43.238;23.110;2023-11-21T06:05:52;96163.56;;;10.21;63.52
39363;BME280;25088;43.238;23.110;2023-11-21T06:08:17;96156.25;;;10.27;63.24
39363;BME280;25088;43.238;23.110;2023-11-21T06:10:44;96159.97;;;10.16;63.21
39363;BME280;25088;43.238;23.110;2023-11-21T06:13:09;96157.66;;;10.29;62.85
39363;BME280;25088;43.238;23.110;2023-11-21T06:15:36;96155.75;;;10.30;63.78
39363;BME280;25088;43.238;23.110;2023-11-21T06:18:01;96142.88;;;10.25;63.42
39363;BME280;25088;43.238;23.110;2023-11-21T06:20:27;96158.22;;;10.37;63.29
39363;BME280;25088;43.238;23.110;2023-11-21T06:22:52;96156.72;;;10.56;62.55
39363;BME280;25088;43.238;23.110;2023-11-21T06:25:19;96141.47;;;10.65;61.95
39363;BME280;25088;43.238;23.110;2023-11-21T06:27:47;96149.84;;;11.06;60.54
39363;BME280;25088;43.238;23.110;2023-11-21T06:30:14;96137.28;;;11.10;60.04
39363;BME280;25088;43.238;23.110;2023-11-21T06:32:41;96145.28;;;11.42;59.40
39363;BME280;25088;43.238;23.110;2023-11-21T06:35:07;96151.06;;;11.71;59.14
39363;BME280;25088;43.238;23.110;2023-11-21T06:37:33;96142.34;;;11.79;58.24
39363;BME280;25088;43.238;23.110;2023-11-21T06:40:00;96149.47;;;11.96;57.59
39363;BME280;25088;43.238;23.110;2023-11-21T06:42:26;96148.94;;;12.04;57.77
39363;BME280;25088;43.238;23.110;2023-11-21T06:44:52;96149.44;;;12.26;56.94
39363;BME280;25088;43.238;23.110;2023-11-21T06:47:19;96137.97;;;12.24;56.92
39363;BME280;25088;43.238;23.110;2023-11-21T06:49:50;96126.97;;;12.45;56.56
39363;BME280;25088;43.238;23.110;2023-11-21T06:52:15;96154.53;;;12.84;56.20
39363;BME280;25088;43.238;23.110;2023-11-21T06:54:41;96146.97;;;13.25;55.80
39363;BME280;25088;43.238;23.110;2023-11-21T06:57:06;96154.59;;;13.38;56.07
39363;BME280;25088;43.238;23.110;2023-11-21T06:59:35;96148.78;;;13.45;55.13
39363;BME280;25088;43.238;23.110;2023-11-21T07:02:01;96142.66;;;13.63;54.13
39363;BME280;25088;43.238;23.110;2023-11-21T07:04:26;96143.69;;;13.73;53.62
39363;BME280;25088;43.238;23.110;2023-11-21T07:06:53;96137.44;;;14.30;53.76
39363;BME280;25088;43.238;23.110;2023-11-21T07:09:19;96083.22;;;14.41;52.62
39363;BME280;25088;43.238;23.110;2023-11-21T07:11:48;96126.59;;;15.59;50.49
39363;BME280;25088;43.238;23.110;2023-11-21T07:14:17;96126.09;;;15.94;49.60
39363;BME280;25088;43.238;23.110;2023-11-21T07:16:45;96115.41;;;16.39;47.82
39363;BME280;25088;43.238;23.110;2023-11-21T07:19:10;96119.13;;;16.62;47.44
39363;BME280;25088;43.238;23.110;2023-11-21T07:21:37;96109.97;;;16.94;46.59
39363;BME280;25088;43.238;23.110;2023-11-21T07:24:04;96113.75;;;17.26;46.08
39363;BME280;25088;43.238;23.110;2023-11-21T07:26:30;96106.53;;;17.52;45.12
39363;BME280;25088;43.238;23.110;2023-11-21T07:28:56;96096.91;;;18.22;43.91
39363;BME280;25088;43.238;23.110;2023-11-21T07:31:22;96097.63;;;18.68;42.19
39363;BME280;25088;43.238;23.110;2023-11-21T07:33:47;96098.44;;;18.99;41.83
39363;BME280;25088;43.238;23.110;2023-11-21T07:36:14;96099.47;;;19.12;41.91
39363;BME280;25088;43.238;23.110;2023-11-21T07:38:40;96099.53;;;18.81;41.06
39363;BME280;25088;43.238;23.110;2023-11-21T07:41:05;96101.75;;;19.19;40.27
39363;BME280;25088;43.238;23.110;2023-11-21T07:43:34;96094.06;;;20.07;39.60
39363;BME280;25088;43.238;23.110;2023-11-21T07:46:03;96088.97;;;21.00;38.76
39363;BME280;25088;43.238;23.110;2023-11-21T07:48:32;96078.16;;;21.87;36.17
39363;BME280;25088;43.238;23.110;2023-11-21T07:50:58;96067.06;;;22.41;36.48
39363;BME280;25088;43.238;23.110;2023-11-21T07:53:24;96074.53;;;22.07;36.10
39363;BME280;25088;43.238;23.110;2023-11-21T07:55:57;96072.53;;;22.50;34.86
39363;BME280;25088;43.238;23.110;2023-11-21T07:58:23;96076.19;;;22.87;35.63
39363;BME280;25088;43.238;23.110;2023-11-21T08:00:49;96068.56;;;23.45;33.19
39363;BME280;25088;43.238;23.110;2023-11-21T08:03:15;96061.03;;;23.70;32.47
39363;BME280;25088;43.238;23.110;2023-11-21T08:05:42;96068.44;;;24.18;32.14
39363;BME280;25088;43.238;23.110;2023-11-21T08:08:08;96070.09;;;24.79;30.65
39363;BME280;25088;43.238;23.110;2023-11-21T08:10:34;96053.63;;;24.74;30.86
39363;BME280;25088;43.238;23.110;2023-11-21T08:13:01;96073.44;;;25.00;29.88
39363;BME280;25088;43.238;23.110;2023-11-21T08:15:26;96047.78;;;24.95;29.79
39363;BME280;25088;43.238;23.110;2023-11-21T08:17:52;96064.50;;;25.07;29.41
39363;BME280;25088;43.238;23.110;2023-11-21T08:20:17;96056.41;;;24.90;30.20
39363;BME280;25088;43.238;23.110;2023-11-21T08:22:44;96069.75;;;24.81;30.35
39363;BME280;25088;43.238;23.110;2023-11-21T08:25:09;96062.44;;;24.04;31.76
39363;BME280;25088;43.238;23.110;2023-11-21T08:27:35;96058.78;;;23.76;31.66
39363;BME280;25088;43.238;23.110;2023-11-21T08:30:02;96054.88;;;23.40;31.74
39363;BME280;25088;43.238;23.110;2023-11-21T08:32:28;96055.81;;;22.95;32.63
39363;BME280;25088;43.238;23.110;2023-11-21T08:34:55;95942.78;;;22.21;32.48
39363;BME280;25088;43.238;23.110;2023-11-21T08:37:22;96043.66;;;23.00;31.81
39363;BME280;25088;43.238;23.110;2023-11-21T08:39:49;96036.47;;;22.99;32.23
39363;BME280;25088;43.238;23.110;2023-11-21T08:42:14;96008.81;;;22.81;32.17
39363;BME280;25088;43.238;23.110;2023-11-21T08:44:40;96061.16;;;23.37;32.12
39363;BME280;25088;43.238;23.110;2023-11-21T08:47:06;96068.47;;;23.54;31.71
39363;BME280;25088;43.238;23.110;2023-11-21T08:49:32;96025.31;;;23.11;31.87
39363;BME280;25088;43.238;23.110;2023-11-21T08:51:59;96064.47;;;22.81;32.22
39363;BME280;25088;43.238;23.110;2023-11-21T08:54:25;96030.59;;;22.55;32.58
39363;BME280;25088;43.238;23.110;2023-11-21T08:56:52;96030.22;;;22.56;32.56
39363;BME280;25088;43.238;23.110;2023-11-21T08:59:18;95974.09;;;22.30;32.19
39363;BME280;25088;43.238;23.110;2023-11-21T09:01:45;96043.44;;;22.92;32.15
39363;BME280;25088;43.238;23.110;2023-11-21T09:04:10;95963.66;;;22.27;32.24
39363;BME280;25088;43.238;23.110;2023-11-21T09:06:36;96033.16;;;22.60;32.25
39363;BME280;25088;43.238;23.110;2023-11-21T09:09:01;96032.19;;;22.56;31.91
39363;BME280;25088;43.238;23.110;2023-11-21T09:11:27;96025.16;;;22.70;32.17
39363;BME280;25088;43.238;23.110;2023-11-21T09:13:58;96018.41;;;22.71;31.78
39363;BME280;25088;43.238;23.110;2023-11-21T09:16:24;96011.00;;;22.63;32.31
39363;BME280;25088;43.238;23.110;2023-11-21T09:18:49;95995.34;;;22.59;31.98
39363;BME280;25088;43.238;23.110;2023-11-21T09:21:16;95921.31;;;22.09;32.80
39363;BME280;25088;43.238;23.110;2023-11-21T09:23:46;95984.47;;;22.54;32.09
39363;BME280;25088;43.238;23.110;2023-11-21T09:26:11;95980.97;;;22.44;31.77
39363;BME280;25088;43.238;23.110;2023-11-21T09:28:37;95963.25;;;22.49;31.82
39363;BME280;25088;43.238;23.110;2023-11-21T09:31:07;95954.31;;;22.56;32.50
39363;BME280;25088;43.238;23.110;2023-11-21T09:33:34;95973.34;;;22.78;32.19
39363;BME280;25088;43.238;23.110;2023-11-21T09:35:59;95965.44;;;22.56;31.78
39363;BME280;25088;43.238;23.110;2023-11-21T09:38:25;95969.13;;;22.48;32.34
39363;BME280;25088;43.238;23.110;2023-11-21T09:40:51;95965.66;;;22.51;32.09
39363;BME280;25088;43.238;23.110;2023-11-21T09:43:18;95963.00;;;22.54;32.52
39363;BME280;25088;43.238;23.110;2023-11-21T09:45:48;95953.41;;;22.88;31.92
39363;BME280;25088;43.238;23.110;2023-11-21T09:48:19;95926.72;;;23.00;31.65
39363;BME280;25088;43.238;23.110;2023-11-21T09:50:47;95942.94;;;23.10;31.71
39363;BME280;25088;43.238;23.110;2023-11-21T09:53:17;95942.34;;;23.16;31.31
39363;BME280;25088;43.238;23.110;2023-11-21T09:55:48;95924.16;;;22.82;31.33
39363;BME280;25088;43.238;23.110;2023-11-21T09:58:14;95939.81;;;22.75;31.67
39363;BME280;25088;43.238;23.110;2023-11-21T10:00:41;95918.50;;;22.54;31.96
39363;BME280;25088;43.238;23.110;2023-11-21T10:03:07;95929.84;;;22.61;32.23
39363;BME280;25088;43.238;23.110;2023-11-21T10:05:34;95933.31;;;22.34;32.42
39363;BME280;25088;43.238;23.110;2023-11-21T10:08:00;95928.53;;;22.22;32.47
39363;BME280;25088;43.238;23.110;2023-11-21T10:10:27;95916.88;;;21.96;32.37
39363;BME280;25088;43.238;23.110;2023-11-21T10:12:57;95894.66;;;21.62;33.58
39363;BME280;25088;43.238;23.110;2023-11-21T10:15:27;95911.41;;;21.87;32.65
39363;BME280;25088;43.238;23.110;2023-11-21T10:17:53;95889.09;;;21.62;32.55
39363;BME280;25088;43.238;23.110;2023-11-21T10:20:20;95863.34;;;21.41;33.27
39363;BME280;25088;43.238;23.110;2023-11-21T10:22:46;95863.22;;;21.37;32.86
39363;BME280;25088;43.238;23.110;2023-11-21T10:25:12;95886.25;;;21.71;32.83
39363;BME280;25088;43.238;23.110;2023-11-21T10:27:40;95854.81;;;21.46;32.83
39363;BME280;25088;43.238;23.110;2023-11-21T10:30:07;95884.06;;;21.77;32.66
39363;BME280;25088;43.238;23.110;2023-11-21T10:32:40;95835.44;;;21.71;32.23
39363;BME280;25088;43.238;23.110;2023-11-21T10:35:07;95848.63;;;22.19;32.42
39363;BME280;25088;43.238;23.110;2023-11-21T10:37:39;95820.56;;;22.49;31.25
39363;BME280;25088;43.238;23.110;2023-11-21T10:40:09;95838.28;;;22.68;31.08
39363;BME280;25088;43.238;23.110;2023-11-21T10:42:40;95844.03;;;22.88;30.99
39363;BME280;25088;43.238;23.110;2023-11-21T10:45:08;95841.47;;;22.95;31.21
39363;BME280;25088;43.238;23.110;2023-11-21T10:47:40;95835.56;;;22.84;31.62
39363;BME280;25088;43.238;23.110;2023-11-21T10:50:07;95824.03;;;22.58;31.34
39363;BME280;25088;43.238;23.110;2023-11-21T10:52:45;95779.78;;;22.16;31.90
39363;BME280;25088;43.238;23.110;2023-11-21T10:55:19;95824.63;;;22.14;31.82
39363;BME280;25088;43.238;23.110;2023-11-21T10:57:52;95824.94;;;21.88;32.63
39363;BME280;25088;43.238;23.110;2023-11-21T11:00:19;95815.59;;;21.27;32.34
39363;BME280;25088;43.238;23.110;2023-11-21T11:02:51;95821.88;;;21.03;32.79
39363;BME280;25088;43.238;23.110;2023-11-21T11:05:19;95788.75;;;20.64;33.33
39363;BME280;25088;43.238;23.110;2023-11-21T11:07:57;95819.25;;;20.64;33.57
39363;BME280;25088;43.238;23.110;2023-11-21T11:10:26;95819.03;;;20.49;33.61
39363;BME280;25088;43.238;23.110;2023-11-21T11:12:53;95814.56;;;20.27;33.85
39363;BME280;25088;43.238;23.110;2023-11-21T11:15:21;95802.44;;;20.10;34.21
39363;BME280;25088;43.238;23.110;2023-11-21T11:17:48;95822.41;;;20.25;34.24
39363;BME280;25088;43.238;23.110;2023-11-21T11:20:16;95826.38;;;20.15;34.95
39363;BME280;25088;43.238;23.110;2023-11-21T11:28:29;95816.47;;;18.77;35.12
39363;BME280;25088;43.238;23.110;2023-11-21T11:34:32;95830.25;;;17.94;36.42
39363;BME280;25088;43.238;23.110;2023-11-21T11:37:01;95843.06;;;17.90;36.07
39363;BME280;25088;43.238;23.110;2023-11-21T11:39:29;95832.25;;;17.40;36.48
39363;BME280;25088;43.238;23.110;2023-11-21T11:41:58;95819.53;;;16.99;36.83
39363;BME280;25088;43.238;23.110;2023-11-21T11:50:09;95820.22;;;17.04;36.63
39363;BME280;25088;43.238;23.110;2023-11-21T11:52:43;95822.91;;;17.18;36.92
39363;BME280;25088;43.238;23.110;2023-11-21T11:55:16;95834.88;;;17.14;37.16
39363;BME280;25088;43.238;23.110;2023-11-21T11:57:49;95808.56;;;16.85;37.44
39363;BME280;25088;43.238;23.110;2023-11-21T12:02:55;95766.22;;;16.81;36.85
39363;BME280;25088;43.238;23.110;2023-11-21T12:05:26;95825.84;;;16.99;37.02
39363;BME280;25088;43.238;23.110;2023-11-21T12:07:58;95817.50;;;17.36;36.98
39363;BME280;25088;43.238;23.110;2023-11-21T12:10:29;95817.41;;;16.96;37.38
39363;BME280;25088;43.238;23.110;2023-11-21T12:12:59;95802.28;;;16.93;37.67
39363;BME280;25088;43.238;23.110;2023-11-21T12:15:26;95801.28;;;16.67;38.42
39363;BME280;25088;43.238;23.110;2023-11-21T12:17:55;95793.28;;;16.43;39.27
39363;BME280;25088;43.238;23.110;2023-11-21T12:20:22;95784.94;;;16.34;39.71
39363;BME280;25088;43.238;23.110;2023-11-21T12:22:56;95791.16;;;16.26;39.95
39363;BME280;25088;43.238;23.110;2023-11-21T12:25:25;95777.25;;;16.09;40.74
39363;BME280;25088;43.238;23.110;2023-11-21T12:27:54;95811.81;;;16.15;41.12
39363;BME280;25088;43.238;23.110;2023-11-21T12:30:22;95806.75;;;15.94;41.32
39363;BME280;25088;43.238;23.110;2023-11-21T12:32:49;95808.19;;;15.78;42.07
39363;BME280;25088;43.238;23.110;2023-11-21T12:35:17;95814.06;;;15.58;43.51
39363;BME280;25088;43.238;23.110;2023-11-21T12:37:45;95797.50;;;15.16;44.55
39363;BME280;25088;43.238;23.110;2023-11-21T12:40:11;95796.44;;;14.98;46.47
39363;BME280;25088;43.238;23.110;2023-11-21T12:42:41;95813.38;;;14.73;47.23
39363;BME280;25088;43.238;23.110;2023-11-21T12:45:26;95810.19;;;14.98;48.16
39363;BME280;25088;43.238;23.110;2023-11-21T12:48:10;95775.00;;;14.30;49.54
39363;BME280;25088;43.238;23.110;2023-11-21T12:50:37;95820.34;;;14.46;49.74
39363;BME280;25088;43.238;23.110;2023-11-21T12:53:04;95820.41;;;14.41;48.70
39363;BME280;25088;43.238;23.110;2023-11-21T12:55:34;95820.41;;;14.41;49.36
39363;BME280;25088;43.238;23.110;2023-11-21T12:58:04;95831.53;;;14.31;49.45
39363;BME280;25088;43.238;23.110;2023-11-21T13:00:42;95826.88;;;14.13;49.29
39363;BME280;25088;43.238;23.110;2023-11-21T13:03:09;95834.56;;;14.11;50.20
39363;BME280;25088;43.238;23.110;2023-11-21T13:05:38;95835.75;;;14.05;50.61
39363;BME280;25088;43.238;23.110;2023-11-21T13:08:05;95838.56;;;14.00;50.78
39363;BME280;25088;43.238;23.110;2023-11-21T13:10:34;95828.34;;;14.05;50.37